Boeing Field King County International Airport
KBFI : now visible

Airfield :











YOU CAN JOIN US ON...

 
LOGIN :

Register | Disclaimer

   EN    FR    IT 

 









Legend :    VFR   Marginal VFR   IFR   Intensive IFR   Very Intensive IFR
Visi :
Ceiling :
>= 8 km
>= 3000ft
5 to 8 km
1000 to 3000 ft
1500m to 5 km
500 to 1000 ft
800 to 1500m
200 to 500 ft
< 800m
< 200 ft
Symbols :   Thunderstorms  Fog  Heavy snow  Heavy precipitations  Wind > 20 kt






- Airport Elevation : 21 ft
- IATA code : BFI


KBFI - Boeing Field King County International

CURRENT METAR :
  • 300953Z 00000KT 10SM OVC036 14/12 A3023 RMK AO2 SLP236 T01440117

EXPIRED METARs :
  • 300853Z 00000KT 10SM BKN036 14/12 A3022 RMK AO2 SLP233 T01440117 51005
  • 300753Z 00000KT 10SM CLR 14/12 A3021 RMK AO2 SLP231 T01440117 402170139

TAF KBFI
Valid from the 30 at 06:00 until the 01 at 06:00 UTC


300525Z 3006/0106 00000KT P6SM FEW060
FM301200 VRB02KT P6SM BCFG SCT007
FM301900 32006KT P6SM SKC
KZSE FIR / North America



MET'MAP, your aeronautical weather chart ! - Copyright ORBIFLY December 2007 - Disclaimer

ORBIFLY MET'MAP TEAM :

Programming & Development : Alexandra Zaïnal
Original concept : Baudouin d'Aumeries
Technical & hardware support : Manuel Goepfert
Assistance : Marc-Olivier Méhu




SOURCES & CREDITS :

   NOAA       Earth
Advisory